sensor_id;sensor_type;location;lat;lon;timestamp;pressure;altitude;pressure_sealevel;temperature;humidity
38452;BME280;24231;52.514;13.438;2022-10-17T00:01:59;101763.37;;;17.58;56.95
38452;BME280;24231;52.514;13.438;2022-10-17T00:04:27;101765.08;;;16.79;58.18
38452;BME280;24231;52.514;13.438;2022-10-17T00:06:54;101766.37;;;16.14;60.94
38452;BME280;24231;52.514;13.438;2022-10-17T00:09:21;101763.45;;;16.69;59.24
38452;BME280;24231;52.514;13.438;2022-10-17T00:11:48;101767.22;;;15.71;62.85
38452;BME280;24231;52.514;13.438;2022-10-17T00:14:15;101770.32;;;15.58;64.50
38452;BME280;24231;52.514;13.438;2022-10-17T00:16:43;101765.10;;;16.68;60.64
38452;BME280;24231;52.514;13.438;2022-10-17T00:19:10;101770.46;;;15.60;64.00
38452;BME280;24231;52.514;13.438;2022-10-17T00:21:37;101762.48;;;15.46;65.57
38452;BME280;24231;52.514;13.438;2022-10-17T00:24:04;101752.47;;;15.93;64.62
38452;BME280;24231;52.514;13.438;2022-10-17T00:26:32;101741.41;;;16.67;61.56
38452;BME280;24231;52.514;13.438;2022-10-17T00:28:59;101750.68;;;15.94;63.37
38452;BME280;24231;52.514;13.438;2022-10-17T00:31:26;101757.86;;;15.48;65.36
38452;BME280;24231;52.514;13.438;2022-10-17T00:33:53;101765.63;;;16.29;62.30
38452;BME280;24231;52.514;13.438;2022-10-17T00:36:22;101767.09;;;15.57;64.82
38452;BME280;24231;52.514;13.438;2022-10-17T00:38:52;101760.53;;;15.67;65.02
38452;BME280;24231;52.514;13.438;2022-10-17T00:41:22;101745.79;;;16.67;61.34
38452;BME280;24231;52.514;13.438;2022-10-17T00:43:53;101742.95;;;16.25;63.04
38452;BME280;24231;52.514;13.438;2022-10-17T00:46:24;101748.30;;;15.27;66.80
38452;BME280;24231;52.514;13.438;2022-10-17T00:48:53;101747.30;;;16.20;63.70
38452;BME280;24231;52.514;13.438;2022-10-17T00:51:25;101755.39;;;15.13;67.50
38452;BME280;24231;52.514;13.438;2022-10-17T00:53:54;101761.81;;;15.64;65.20
38452;BME280;24231;52.514;13.438;2022-10-17T00:56:22;101769.72;;;15.83;65.13
38452;BME280;24231;52.514;13.438;2022-10-17T00:58:49;101770.20;;;17.54;59.17
38452;BME280;24231;52.514;13.438;2022-10-17T01:01:17;101769.86;;;17.53;58.17
38452;BME280;24231;52.514;13.438;2022-10-17T01:03:44;101773.24;;;15.52;65.08
38452;BME280;24231;52.514;13.438;2022-10-17T01:06:12;101770.32;;;16.22;63.47
38452;BME280;24231;52.514;13.438;2022-10-17T01:08:40;101769.17;;;15.22;67.36
38452;BME280;24231;52.514;13.438;2022-10-17T01:11:16;101762.51;;;15.77;65.92
38452;BME280;24231;52.514;13.438;2022-10-17T01:13:50;101757.65;;;14.91;69.66
38452;BME280;24231;52.514;13.438;2022-10-17T01:16:26;101747.07;;;14.51;71.41
38452;BME280;24231;52.514;13.438;2022-10-17T01:19:03;101749.98;;;14.32;72.84
38452;BME280;24231;52.514;13.438;2022-10-17T01:21:46;101745.20;;;16.41;65.08
38452;BME280;24231;52.514;13.438;2022-10-17T01:24:36;101739.67;;;16.58;64.18
38452;BME280;24231;52.514;13.438;2022-10-17T01:27:26;101740.89;;;15.17;68.54
38452;BME280;24231;52.514;13.438;2022-10-17T01:30:12;101737.81;;;14.36;72.74
38452;BME280;24231;52.514;13.438;2022-10-17T01:32:50;101739.92;;;14.61;71.58
38452;BME280;24231;52.514;13.438;2022-10-17T01:35:22;101739.40;;;14.27;73.98
38452;BME280;24231;52.514;13.438;2022-10-17T01:37:58;101735.89;;;14.28;74.97
38452;BME280;24231;52.514;13.438;2022-10-17T01:40:31;101733.92;;;14.70;73.32
38452;BME280;24231;52.514;13.438;2022-10-17T01:43:04;101736.10;;;15.00;73.40
38452;BME280;24231;52.514;13.438;2022-10-17T01:45:36;101734.86;;;14.61;74.89
38452;BME280;24231;52.514;13.438;2022-10-17T01:48:09;101730.45;;;14.81;73.20
38452;BME280;24231;52.514;13.438;2022-10-17T01:50:41;101727.33;;;15.05;72.01
38452;BME280;24231;52.514;13.438;2022-10-17T01:53:13;101726.17;;;14.50;75.04
38452;BME280;24231;52.514;13.438;2022-10-17T01:55:44;101726.89;;;14.49;75.65
38452;BME280;24231;52.514;13.438;2022-10-17T01:58:17;101726.47;;;14.75;74.06
38452;BME280;24231;52.514;13.438;2022-10-17T02:00:47;101728.42;;;14.69;73.91
38452;BME280;24231;52.514;13.438;2022-10-17T02:03:18;101725.87;;;14.37;76.17
38452;BME280;24231;52.514;13.438;2022-10-17T02:05:45;101727.17;;;14.13;78.05
38452;BME280;24231;52.514;13.438;2022-10-17T02:08:23;101728.02;;;13.85;79.52
38452;BME280;24231;52.514;13.438;2022-10-17T02:10:55;101725.34;;;14.18;79.20
38452;BME280;24231;52.514;13.438;2022-10-17T02:13:32;101727.23;;;13.77;81.31
38452;BME280;24231;52.514;13.438;2022-10-17T02:16:16;101725.53;;;16.03;71.31
38452;BME280;24231;52.514;13.438;2022-10-17T02:19:01;101724.77;;;15.38;73.29
38452;BME280;24231;52.514;13.438;2022-10-17T02:21:40;101724.93;;;14.97;75.33
38452;BME280;24231;52.514;13.438;2022-10-17T02:24:17;101723.89;;;14.90;74.93
38452;BME280;24231;52.514;13.438;2022-10-17T02:26:52;101724.62;;;14.74;76.13
38452;BME280;24231;52.514;13.438;2022-10-17T02:29:24;101726.10;;;15.08;74.61
38452;BME280;24231;52.514;13.438;2022-10-17T02:31:57;101725.84;;;14.74;76.58
38452;BME280;24231;52.514;13.438;2022-10-17T02:34:30;101721.66;;;15.54;74.37
38452;BME280;24231;52.514;13.438;2022-10-17T02:37:02;101723.46;;;13.86;81.31
38452;BME280;24231;52.514;13.438;2022-10-17T02:39:32;101721.20;;;15.47;72.70
38452;BME280;24231;52.514;13.438;2022-10-17T02:42:04;101714.63;;;15.34;74.35
38452;BME280;24231;52.514;13.438;2022-10-17T02:44:32;101716.76;;;14.81;76.16
38452;BME280;24231;52.514;13.438;2022-10-17T02:47:06;101716.80;;;14.53;77.55
38452;BME280;24231;52.514;13.438;2022-10-17T02:49:49;101714.67;;;14.52;77.78
38452;BME280;24231;52.514;13.438;2022-10-17T02:52:20;101712.84;;;14.62;76.90
38452;BME280;24231;52.514;13.438;2022-10-17T02:54:52;101707.58;;;14.32;78.03
38452;BME280;24231;52.514;13.438;2022-10-17T02:57:26;101711.97;;;14.47;77.58
38452;BME280;24231;52.514;13.438;2022-10-17T02:59:57;101712.68;;;14.75;76.75
38452;BME280;24231;52.514;13.438;2022-10-17T03:02:25;101713.24;;;14.61;77.08
38452;BME280;24231;52.514;13.438;2022-10-17T03:04:53;101715.54;;;14.09;79.84
38452;BME280;24231;52.514;13.438;2022-10-17T03:07:20;101716.21;;;14.19;80.01
38452;BME280;24231;52.514;13.438;2022-10-17T03:09:47;101712.62;;;14.64;78.44
38452;BME280;24231;52.514;13.438;2022-10-17T03:12:14;101710.52;;;15.10;75.14
38452;BME280;24231;52.514;13.438;2022-10-17T03:14:41;101710.71;;;14.39;78.49
38452;BME280;24231;52.514;13.438;2022-10-17T03:17:08;101711.51;;;15.10;75.45
38452;BME280;24231;52.514;13.438;2022-10-17T03:19:35;101713.98;;;14.41;78.35
38452;BME280;24231;52.514;13.438;2022-10-17T03:22:02;101716.75;;;14.06;80.73
38452;BME280;24231;52.514;13.438;2022-10-17T03:24:29;101717.29;;;14.18;80.36
38452;BME280;24231;52.514;13.438;2022-10-17T03:26:56;101717.39;;;14.00;80.88
38452;BME280;24231;52.514;13.438;2022-10-17T03:29:23;101714.83;;;13.85;82.43
38452;BME280;24231;52.514;13.438;2022-10-17T03:31:50;101707.30;;;14.15;80.60
38452;BME280;24231;52.514;13.438;2022-10-17T03:34:18;101702.89;;;14.54;78.49
38452;BME280;24231;52.514;13.438;2022-10-17T03:36:45;101699.69;;;14.15;80.00
38452;BME280;24231;52.514;13.438;2022-10-17T03:39:13;101689.43;;;14.23;80.32
38452;BME280;24231;52.514;13.438;2022-10-17T03:41:39;101697.08;;;13.83;81.78
38452;BME280;24231;52.514;13.438;2022-10-17T03:44:06;101700.62;;;13.86;82.32
38452;BME280;24231;52.514;13.438;2022-10-17T03:46:33;101703.04;;;14.15;81.63
38452;BME280;24231;52.514;13.438;2022-10-17T03:49:01;101704.90;;;13.72;84.03
38452;BME280;24231;52.514;13.438;2022-10-17T03:51:28;101702.30;;;13.89;83.09
38452;BME280;24231;52.514;13.438;2022-10-17T03:53:55;101705.12;;;13.81;83.40
38452;BME280;24231;52.514;13.438;2022-10-17T03:56:23;101695.67;;;14.11;82.20
38452;BME280;24231;52.514;13.438;2022-10-17T03:58:51;101694.03;;;13.81;82.94
38452;BME280;24231;52.514;13.438;2022-10-17T04:01:20;101694.54;;;14.01;82.54
38452;BME280;24231;52.514;13.438;2022-10-17T04:03:48;101691.56;;;13.81;84.33
38452;BME280;24231;52.514;13.438;2022-10-17T04:06:16;101692.25;;;13.87;83.62
38452;BME280;24231;52.514;13.438;2022-10-17T04:08:43;101689.31;;;13.97;83.16
38452;BME280;24231;52.514;13.438;2022-10-17T04:11:13;101687.17;;;14.08;83.21
38452;BME280;24231;52.514;13.438;2022-10-17T04:13:41;101684.14;;;14.30;82.12
38452;BME280;24231;52.514;13.438;2022-10-17T04:16:11;101682.49;;;14.14;82.66
38452;BME280;24231;52.514;13.438;2022-10-17T04:18:39;101680.64;;;14.39;81.42
38452;BME280;24231;52.514;13.438;2022-10-17T04:21:06;101675.66;;;13.92;84.27
38452;BME280;24231;52.514;13.438;2022-10-17T04:23:33;101675.83;;;14.17;82.66
38452;BME280;24231;52.514;13.438;2022-10-17T04:26:02;101679.34;;;13.76;85.48
38452;BME280;24231;52.514;13.438;2022-10-17T04:28:31;101681.49;;;13.72;86.25
38452;BME280;24231;52.514;13.438;2022-10-17T04:30:59;101684.63;;;13.62;87.72
38452;BME280;24231;52.514;13.438;2022-10-17T04:33:27;101681.62;;;13.68;86.57
38452;BME280;24231;52.514;13.438;2022-10-17T04:35:55;101679.10;;;13.93;84.94
38452;BME280;24231;52.514;13.438;2022-10-17T04:38:22;101679.61;;;13.77;85.36
38452;BME280;24231;52.514;13.438;2022-10-17T04:40:49;101680.39;;;13.75;85.79
38452;BME280;24231;52.514;13.438;2022-10-17T04:43:16;101675.09;;;14.05;83.35
38452;BME280;24231;52.514;13.438;2022-10-17T04:45:43;101678.67;;;14.18;82.41
38452;BME280;24231;52.514;13.438;2022-10-17T04:48:10;101679.52;;;13.76;85.36
38452;BME280;24231;52.514;13.438;2022-10-17T04:50:37;101678.85;;;13.98;83.30
38452;BME280;24231;52.514;13.438;2022-10-17T04:53:04;101679.37;;;14.14;82.99
38452;BME280;24231;52.514;13.438;2022-10-17T04:55:36;101683.62;;;14.44;81.52
38452;BME280;24231;52.514;13.438;2022-10-17T04:58:03;101682.85;;;15.03;79.14
38452;BME280;24231;52.514;13.438;2022-10-17T05:00:30;101684.61;;;14.21;81.23
38452;BME280;24231;52.514;13.438;2022-10-17T05:02:57;101684.44;;;14.23;81.67
38452;BME280;24231;52.514;13.438;2022-10-17T05:05:25;101685.36;;;13.58;84.17
38452;BME280;24231;52.514;13.438;2022-10-17T05:07:52;101678.16;;;13.96;83.69
38452;BME280;24231;52.514;13.438;2022-10-17T05:10:19;101681.93;;;14.54;81.68
38452;BME280;24231;52.514;13.438;2022-10-17T05:12:46;101683.95;;;13.84;83.87
38452;BME280;24231;52.514;13.438;2022-10-17T05:15:14;101691.15;;;13.46;86.84
38452;BME280;24231;52.514;13.438;2022-10-17T05:17:41;101688.19;;;14.01;83.78
38452;BME280;24231;52.514;13.438;2022-10-17T05:20:09;101687.85;;;13.53;86.73
38452;BME280;24231;52.514;13.438;2022-10-17T05:22:37;101687.53;;;13.65;86.18
38452;BME280;24231;52.514;13.438;2022-10-17T05:25:04;101692.85;;;13.50;86.93
38452;BME280;24231;52.514;13.438;2022-10-17T05:27:32;101698.26;;;13.47;87.47
38452;BME280;24231;52.514;13.438;2022-10-17T05:29:59;101693.08;;;13.52;88.36
38452;BME280;24231;52.514;13.438;2022-10-17T05:32:26;101690.47;;;13.48;88.05
38452;BME280;24231;52.514;13.438;2022-10-17T05:34:53;101689.11;;;13.66;87.13
38452;BME280;24231;52.514;13.438;2022-10-17T05:37:21;101696.25;;;13.27;87.89
38452;BME280;24231;52.514;13.438;2022-10-17T05:39:49;101695.84;;;13.32;89.52
38452;BME280;24231;52.514;13.438;2022-10-17T05:42:16;101688.18;;;13.80;86.50
38452;BME280;24231;52.514;13.438;2022-10-17T05:44:43;101688.83;;;13.47;86.42
38452;BME280;24231;52.514;13.438;2022-10-17T05:47:10;101694.57;;;13.38;88.15
38452;BME280;24231;52.514;13.438;2022-10-17T05:49:37;101694.91;;;13.16;89.90
38452;BME280;24231;52.514;13.438;2022-10-17T05:52:04;101694.19;;;13.39;90.41
38452;BME280;24231;52.514;13.438;2022-10-17T05:54:31;101694.03;;;13.37;89.87
38452;BME280;24231;52.514;13.438;2022-10-17T05:56:59;101699.41;;;13.44;89.31
38452;BME280;24231;52.514;13.438;2022-10-17T05:59:27;101701.95;;;13.58;90.04
38452;BME280;24231;52.514;13.438;2022-10-17T06:01:54;101706.26;;;13.47;90.41
38452;BME280;24231;52.514;13.438;2022-10-17T06:04:21;101702.85;;;13.87;87.75
38452;BME280;24231;52.514;13.438;2022-10-17T06:06:48;101704.35;;;14.06;85.84
38452;BME280;24231;52.514;13.438;2022-10-17T06:09:14;101703.56;;;14.63;82.82
38452;BME280;24231;52.514;13.438;2022-10-17T06:11:42;101703.95;;;14.51;82.85
38452;BME280;24231;52.514;13.438;2022-10-17T06:14:08;101706.20;;;15.33;79.27
38452;BME280;24231;52.514;13.438;2022-10-17T06:16:35;101717.01;;;14.94;80.31
38452;BME280;24231;52.514;13.438;2022-10-17T06:19:02;101720.72;;;14.64;82.36
38452;BME280;24231;52.514;13.438;2022-10-17T06:21:29;101725.33;;;14.77;82.19
38452;BME280;24231;52.514;13.438;2022-10-17T06:23:56;101730.13;;;14.56;83.03
38452;BME280;24231;52.514;13.438;2022-10-17T06:26:23;101734.75;;;14.60;82.82
38452;BME280;24231;52.514;13.438;2022-10-17T06:28:50;101738.05;;;14.44;84.91
38452;BME280;24231;52.514;13.438;2022-10-17T06:31:17;101738.29;;;14.71;83.19
38452;BME280;24231;52.514;13.438;2022-10-17T06:33:44;101733.73;;;14.85;82.81
38452;BME280;24231;52.514;13.438;2022-10-17T06:36:13;101741.72;;;14.70;83.81
38452;BME280;24231;52.514;13.438;2022-10-17T06:38:40;101745.35;;;14.58;83.89
38452;BME280;24231;52.514;13.438;2022-10-17T06:41:11;101743.52;;;14.78;83.53
38452;BME280;24231;52.514;13.438;2022-10-17T06:43:39;101737.53;;;14.93;82.34
38452;BME280;24231;52.514;13.438;2022-10-17T06:46:07;101746.20;;;15.11;81.23
38452;BME280;24231;52.514;13.438;2022-10-17T06:48:34;101753.55;;;14.87;83.56
38452;BME280;24231;52.514;13.438;2022-10-17T06:51:02;101757.71;;;15.17;81.44
38452;BME280;24231;52.514;13.438;2022-10-17T06:53:33;101756.08;;;15.21;80.94
38452;BME280;24231;52.514;13.438;2022-10-17T06:56:01;101754.33;;;15.41;79.76
38452;BME280;24231;52.514;13.438;2022-10-17T06:58:29;101755.15;;;15.41;79.41
38452;BME280;24231;52.514;13.438;2022-10-17T07:00:58;101755.68;;;15.49;79.01
38452;BME280;24231;52.514;13.438;2022-10-17T07:03:26;101746.34;;;15.32;81.00
38452;BME280;24231;52.514;13.438;2022-10-17T07:05:54;101747.84;;;15.31;80.27
38452;BME280;24231;52.514;13.438;2022-10-17T07:08:22;101744.19;;;15.16;81.34
38452;BME280;24231;52.514;13.438;2022-10-17T07:10:50;101751.52;;;15.68;78.48
38452;BME280;24231;52.514;13.438;2022-10-17T07:13:18;101755.56;;;15.96;77.70
38452;BME280;24231;52.514;13.438;2022-10-17T07:15:45;101752.76;;;16.20;76.19
38452;BME280;24231;52.514;13.438;2022-10-17T07:18:12;101759.14;;;16.02;75.85
38452;BME280;24231;52.514;13.438;2022-10-17T07:20:40;101774.79;;;16.27;76.31
38452;BME280;24231;52.514;13.438;2022-10-17T07:23:07;101773.58;;;16.23;75.25
38452;BME280;24231;52.514;13.438;2022-10-17T07:25:35;101767.16;;;16.54;74.47
38452;BME280;24231;52.514;13.438;2022-10-17T07:28:03;101769.50;;;16.91;72.27
38452;BME280;24231;52.514;13.438;2022-10-17T07:30:30;101772.81;;;16.94;71.58
38452;BME280;24231;52.514;13.438;2022-10-17T07:32:57;101771.99;;;17.30;69.90
38452;BME280;24231;52.514;13.438;2022-10-17T07:35:24;101774.06;;;16.59;72.34
38452;BME280;24231;52.514;13.438;2022-10-17T07:37:51;101779.38;;;17.81;68.47
38452;BME280;24231;52.514;13.438;2022-10-17T07:40:19;101766.99;;;18.89;63.98
38452;BME280;24231;52.514;13.438;2022-10-17T07:42:46;101772.23;;;17.92;67.10
38452;BME280;24231;52.514;13.438;2022-10-17T07:45:12;101770.16;;;18.21;65.99
38452;BME280;24231;52.514;13.438;2022-10-17T07:47:39;101770.38;;;18.61;63.86
38452;BME280;24231;52.514;13.438;2022-10-17T07:50:07;101769.27;;;18.56;64.41
38452;BME280;24231;52.514;13.438;2022-10-17T07:52:34;101769.00;;;19.16;62.52
38452;BME280;24231;52.514;13.438;2022-10-17T07:55:01;101770.46;;;18.73;63.02
38452;BME280;24231;52.514;13.438;2022-10-17T07:57:29;101771.97;;;18.70;63.49
38452;BME280;24231;52.514;13.438;2022-10-17T07:59:57;101779.32;;;18.44;64.41
38452;BME280;24231;52.514;13.438;2022-10-17T08:02:25;101779.20;;;19.31;62.14
38452;BME280;24231;52.514;13.438;2022-10-17T08:04:53;101772.45;;;18.88;63.07
38452;BME280;24231;52.514;13.438;2022-10-17T08:07:21;101771.65;;;18.72;63.59
38452;BME280;24231;52.514;13.438;2022-10-17T08:09:48;101769.46;;;19.33;61.68
38452;BME280;24231;52.514;13.438;2022-10-17T08:12:15;101770.05;;;19.39;60.81
38452;BME280;24231;52.514;13.438;2022-10-17T08:14:43;101772.54;;;19.92;59.47
38452;BME280;24231;52.514;13.438;2022-10-17T08:17:10;101775.67;;;19.86;59.35
38452;BME280;24231;52.514;13.438;2022-10-17T08:19:38;101775.22;;;19.93;59.12
38452;BME280;24231;52.514;13.438;2022-10-17T08:22:06;101774.07;;;19.42;60.94
38452;BME280;24231;52.514;13.438;2022-10-17T08:24:33;101774.30;;;20.25;58.34
38452;BME280;24231;52.514;13.438;2022-10-17T08:27:01;101775.52;;;20.25;57.72
38452;BME280;24231;52.514;13.438;2022-10-17T08:29:28;101775.35;;;20.51;57.09
38452;BME280;24231;52.514;13.438;2022-10-17T08:31:56;101774.27;;;20.40;57.26
38452;BME280;24231;52.514;13.438;2022-10-17T08:34:23;101774.86;;;21.11;54.82
38452;BME280;24231;52.514;13.438;2022-10-17T08:36:50;101767.47;;;22.55;50.24
38452;BME280;24231;52.514;13.438;2022-10-17T08:39:18;101769.67;;;20.61;56.49
38452;BME280;24231;52.514;13.438;2022-10-17T08:41:54;101768.44;;;20.55;56.58
38452;BME280;24231;52.514;13.438;2022-10-17T08:44:34;101768.57;;;20.55;56.89
38452;BME280;24231;52.514;13.438;2022-10-17T08:47:10;101764.20;;;21.03;55.82
38452;BME280;24231;52.514;13.438;2022-10-17T08:49:42;101761.45;;;20.87;55.76
38452;BME280;24231;52.514;13.438;2022-10-17T08:52:15;101758.61;;;21.19;54.85
38452;BME280;24231;52.514;13.438;2022-10-17T08:54:45;101758.23;;;21.97;52.82
38452;BME280;24231;52.514;13.438;2022-10-17T08:57:15;101757.73;;;21.30;54.58
38452;BME280;24231;52.514;13.438;2022-10-17T08:59:44;101755.47;;;20.97;55.14
38452;BME280;24231;52.514;13.438;2022-10-17T09:02:26;101754.02;;;22.69;51.00
38452;BME280;24231;52.514;13.438;2022-10-17T09:05:13;101754.34;;;22.95;49.19
38452;BME280;24231;52.514;13.438;2022-10-17T09:07:49;101753.07;;;22.69;50.09
38452;BME280;24231;52.514;13.438;2022-10-17T09:10:24;101754.65;;;23.33;48.03
38452;BME280;24231;52.514;13.438;2022-10-17T09:13:03;101759.34;;;23.28;48.19
38452;BME280;24231;52.514;13.438;2022-10-17T09:15:44;101762.65;;;23.97;46.62
38452;BME280;24231;52.514;13.438;2022-10-17T09:18:18;101763.59;;;24.08;46.01
38452;BME280;24231;52.514;13.438;2022-10-17T09:20:50;101763.64;;;23.45;47.54
38452;BME280;24231;52.514;13.438;2022-10-17T09:23:21;101765.45;;;23.82;47.21
38452;BME280;24231;52.514;13.438;2022-10-17T09:25:51;101764.41;;;23.64;46.83
38452;BME280;24231;52.514;13.438;2022-10-17T09:28:22;101762.79;;;23.57;47.58
38452;BME280;24231;52.514;13.438;2022-10-17T09:30:55;101764.30;;;23.63;46.87
38452;BME280;24231;52.514;13.438;2022-10-17T09:33:26;101762.13;;;23.04;48.06
38452;BME280;24231;52.514;13.438;2022-10-17T09:35:55;101751.65;;;24.04;46.23
38452;BME280;24231;52.514;13.438;2022-10-17T09:38:25;101749.87;;;25.10;43.72
38452;BME280;24231;52.514;13.438;2022-10-17T09:40:58;101745.20;;;24.01;45.29
38452;BME280;24231;52.514;13.438;2022-10-17T09:43:27;101745.37;;;24.07;45.35
38452;BME280;24231;52.514;13.438;2022-10-17T09:46:01;101746.20;;;24.63;44.42
38452;BME280;24231;52.514;13.438;2022-10-17T09:48:36;101748.60;;;23.75;46.37
38452;BME280;24231;52.514;13.438;2022-10-17T09:51:05;101744.54;;;25.37;43.11
38452;BME280;24231;52.514;13.438;2022-10-17T09:53:37;101744.94;;;25.05;43.93
38452;BME280;24231;52.514;13.438;2022-10-17T09:56:10;101744.25;;;25.00;42.95
38452;BME280;24231;52.514;13.438;2022-10-17T09:58:40;101743.53;;;23.54;45.74
38452;BME280;24231;52.514;13.438;2022-10-17T10:01:20;101739.23;;;25.04;43.16
38452;BME280;24231;52.514;13.438;2022-10-17T10:03:48;101745.59;;;23.57;46.06
38452;BME280;24231;52.514;13.438;2022-10-17T10:06:34;101736.60;;;24.39;45.22
38452;BME280;24231;52.514;13.438;2022-10-17T10:09:03;101737.84;;;23.54;46.43
38452;BME280;24231;52.514;13.438;2022-10-17T10:11:45;101737.97;;;23.01;47.61
38452;BME280;24231;52.514;13.438;2022-10-17T10:14:20;101736.48;;;23.61;46.33
38452;BME280;24231;52.514;13.438;2022-10-17T10:16:48;101739.09;;;24.43;44.66
38452;BME280;24231;52.514;13.438;2022-10-17T10:19:25;101737.71;;;24.76;43.66
38452;BME280;24231;52.514;13.438;2022-10-17T10:21:55;101742.36;;;24.46;43.82
38452;BME280;24231;52.514;13.438;2022-10-17T10:24:23;101736.03;;;23.19;46.67
38452;BME280;24231;52.514;13.438;2022-10-17T10:26:50;101729.84;;;22.55;48.87
38452;BME280;24231;52.514;13.438;2022-10-17T10:29:22;101740.54;;;22.87;48.22
38452;BME280;24231;52.514;13.438;2022-10-17T10:31:52;101740.21;;;23.25;47.82
38452;BME280;24231;52.514;13.438;2022-10-17T10:34:22;101745.98;;;23.52;46.62
38452;BME280;24231;52.514;13.438;2022-10-17T10:36:55;101745.46;;;23.05;47.74
38452;BME280;24231;52.514;13.438;2022-10-17T10:39:29;101743.44;;;23.68;46.64
38452;BME280;24231;52.514;13.438;2022-10-17T10:41:58;101739.45;;;23.41;47.16
38452;BME280;24231;52.514;13.438;2022-10-17T10:44:29;101741.19;;;22.87;48.14
38452;BME280;24231;52.514;13.438;2022-10-17T10:47:30;101734.82;;;23.60;46.71
38452;BME280;24231;52.514;13.438;2022-10-17T10:50:33;101737.00;;;23.73;45.85
38452;BME280;24231;52.514;13.438;2022-10-17T10:53:12;101732.77;;;24.01;45.14
38452;BME280;24231;52.514;13.438;2022-10-17T10:55:46;101734.84;;;23.07;46.81
38452;BME280;24231;52.514;13.438;2022-10-17T10:58:26;101729.22;;;23.87;45.39
38452;BME280;24231;52.514;13.438;2022-10-17T11:00:57;101720.22;;;24.65;43.37
38452;BME280;24231;52.514;13.438;2022-10-17T11:03:30;101718.03;;;24.75;42.96
38452;BME280;24231;52.514;13.438;2022-10-17T11:06:03;101724.26;;;23.96;44.58
38452;BME280;24231;52.514;13.438;2022-10-17T11:08:42;101728.78;;;25.25;41.96
38452;BME280;24231;52.514;13.438;2022-10-17T11:11:15;101732.62;;;24.42;43.77
38452;BME280;24231;52.514;13.438;2022-10-17T11:13:46;101731.07;;;23.61;45.25
38452;BME280;24231;52.514;13.438;2022-10-17T11:16:22;101719.05;;;23.58;45.56
38452;BME280;24231;52.514;13.438;2022-10-17T11:18:55;101714.28;;;23.46;45.62
38452;BME280;24231;52.514;13.438;2022-10-17T11:21:36;101713.09;;;23.59;45.16
38452;BME280;24231;52.514;13.438;2022-10-17T11:24:10;101705.98;;;23.32;45.90
38452;BME280;24231;52.514;13.438;2022-10-17T11:26:43;101703.12;;;23.14;45.99
38452;BME280;24231;52.514;13.438;2022-10-17T11:29:12;101703.85;;;23.36;45.69
38452;BME280;24231;52.514;13.438;2022-10-17T11:31:44;101700.78;;;23.34;45.54
38452;BME280;24231;52.514;13.438;2022-10-17T11:34:18;101701.32;;;23.52;45.26
38452;BME280;24231;52.514;13.438;2022-10-17T11:36:51;101693.67;;;23.22;44.61
38452;BME280;24231;52.514;13.438;2022-10-17T11:39:22;101692.38;;;24.08;43.61
38452;BME280;24231;52.514;13.438;2022-10-17T11:41:58;101693.23;;;23.77;44.06
38452;BME280;24231;52.514;13.438;2022-10-17T11:44:33;101700.95;;;23.31;46.33
38452;BME280;24231;52.514;13.438;2022-10-17T11:47:05;101700.50;;;22.78;47.75
38452;BME280;24231;52.514;13.438;2022-10-17T11:49:35;101696.68;;;23.32;46.77
38452;BME280;24231;52.514;13.438;2022-10-17T11:52:22;101699.05;;;23.34;46.68
38452;BME280;24231;52.514;13.438;2022-10-17T11:54:57;101694.02;;;22.89;47.99
38452;BME280;24231;52.514;13.438;2022-10-17T11:57:36;101692.66;;;22.34;49.22
38452;BME280;24231;52.514;13.438;2022-10-17T12:00:21;101689.18;;;22.14;49.87
38452;BME280;24231;52.514;13.438;2022-10-17T12:02:56;101690.85;;;22.66;48.83
38452;BME280;24231;52.514;13.438;2022-10-17T12:05:30;101686.13;;;22.42;49.54
38452;BME280;24231;52.514;13.438;2022-10-17T12:08:04;101690.18;;;22.90;48.42
38452;BME280;24231;52.514;13.438;2022-10-17T12:10:43;101688.64;;;22.51;48.81
38452;BME280;24231;52.514;13.438;2022-10-17T12:15:29;101692.89;;;23.02;48.11
38452;BME280;24231;52.514;13.438;2022-10-17T12:17:59;101690.63;;;22.51;48.80
38452;BME280;24231;52.514;13.438;2022-10-17T12:20:29;101692.19;;;22.82;48.06
38452;BME280;24231;52.514;13.438;2022-10-17T12:23:02;101691.25;;;22.71;48.25
38452;BME280;24231;52.514;13.438;2022-10-17T12:25:31;101682.45;;;23.24;46.94
38452;BME280;24231;52.514;13.438;2022-10-17T12:28:10;101683.33;;;23.81;45.89
38452;BME280;24231;52.514;13.438;2022-10-17T12:30:49;101683.34;;;23.57;45.81
38452;BME280;24231;52.514;13.438;2022-10-17T12:33:18;101681.66;;;23.09;46.51
38452;BME280;24231;52.514;13.438;2022-10-17T12:35:47;101676.43;;;23.10;46.29
38452;BME280;24231;52.514;13.438;2022-10-17T12:38:25;101675.88;;;23.02;46.68
38452;BME280;24231;52.514;13.438;2022-10-17T12:40:57;101669.27;;;23.45;45.47
38452;BME280;24231;52.514;13.438;2022-10-17T12:43:50;101671.54;;;23.47;45.45
38452;BME280;24231;52.514;13.438;2022-10-17T12:46:53;101669.08;;;23.01;46.66
38452;BME280;24231;52.514;13.438;2022-10-17T12:49:39;101671.52;;;23.25;46.33
38452;BME280;24231;52.514;13.438;2022-10-17T12:52:19;101672.51;;;23.16;46.92
38452;BME280;24231;52.514;13.438;2022-10-17T12:54:49;101674.11;;;23.00;47.17
38452;BME280;24231;52.514;13.438;2022-10-17T12:57:20;101675.14;;;22.93;47.00
38452;BME280;24231;52.514;13.438;2022-10-17T12:59:48;101674.34;;;23.05;46.88
38452;BME280;24231;52.514;13.438;2022-10-17T13:02:19;101669.01;;;22.96;46.99